sensor_id;sensor_type;location;lat;lon;timestamp;P1;durP1;ratioP1;P2;durP2;ratioP2
19782;SDS011;10051;40.294;-3.754;2023-08-31T00:00:49;3.33;;;1.77;;
19782;SDS011;10051;40.294;-3.754;2023-08-31T00:03:27;2.72;;;1.50;;
19782;SDS011;10051;40.294;-3.754;2023-08-31T00:06:22;2.47;;;1.42;;
19782;SDS011;10051;40.294;-3.754;2023-08-31T00:08:57;2.00;;;1.50;;
19782;SDS011;10051;40.294;-3.754;2023-08-31T00:11:24;4.18;;;1.60;;
19782;SDS011;10051;40.294;-3.754;2023-08-31T00:16:53;3.70;;;1.67;;
19782;SDS011;10051;40.294;-3.754;2023-08-31T00:19:27;5.75;;;1.77;;
19782;SDS011;10051;40.294;-3.754;2023-08-31T00:21:54;4.53;;;1.48;;
19782;SDS011;10051;40.294;-3.754;2023-08-31T00:24:20;5.15;;;1.80;;
19782;SDS011;10051;40.294;-3.754;2023-08-31T00:26:51;3.00;;;1.80;;
19782;SDS011;10051;40.294;-3.754;2023-08-31T00:29:25;3.88;;;1.50;;
19782;SDS011;10051;40.294;-3.754;2023-08-31T00:32:17;3.67;;;1.70;;
19782;SDS011;10051;40.294;-3.754;2023-08-31T00:34:53;1.67;;;1.38;;
19782;SDS011;10051;40.294;-3.754;2023-08-31T00:41:05;3.40;;;1.52;;
19782;SDS011;10051;40.294;-3.754;2023-08-31T00:43:35;2.92;;;1.30;;
19782;SDS011;10051;40.294;-3.754;2023-08-31T00:46:11;2.00;;;1.50;;
19782;SDS011;10051;40.294;-3.754;2023-08-31T00:48:56;2.30;;;1.30;;
19782;SDS011;10051;40.294;-3.754;2023-08-31T00:51:31;2.78;;;1.50;;
19782;SDS011;10051;40.294;-3.754;2023-08-31T00:54:04;1.80;;;1.30;;
19782;SDS011;10051;40.294;-3.754;2023-08-31T00:56:31;3.80;;;1.20;;
19782;SDS011;10051;40.294;-3.754;2023-08-31T00:58:58;4.60;;;1.30;;
19782;SDS011;10051;40.294;-3.754;2023-08-31T01:07:28;2.15;;;1.17;;
19782;SDS011;10051;40.294;-3.754;2023-08-31T01:10:22;4.50;;;1.30;;
19782;SDS011;10051;40.294;-3.754;2023-08-31T01:16:00;2.78;;;1.27;;
19782;SDS011;10051;40.294;-3.754;2023-08-31T01:18:39;2.85;;;1.08;;
19782;SDS011;10051;40.294;-3.754;2023-08-31T01:25:01;2.17;;;1.17;;
19782;SDS011;10051;40.294;-3.754;2023-08-31T01:27:32;2.35;;;1.30;;
19782;SDS011;10051;40.294;-3.754;2023-08-31T01:30:06;2.38;;;1.20;;
19782;SDS011;10051;40.294;-3.754;2023-08-31T01:32:43;3.20;;;1.30;;
19782;SDS011;10051;40.294;-3.754;2023-08-31T01:35:14;2.83;;;1.30;;
19782;SDS011;10051;40.294;-3.754;2023-08-31T01:40:40;1.52;;;1.15;;
19782;SDS011;10051;40.294;-3.754;2023-08-31T01:43:15;3.50;;;1.80;;
19782;SDS011;10051;40.294;-3.754;2023-08-31T01:45:47;2.97;;;1.40;;
19782;SDS011;10051;40.294;-3.754;2023-08-31T01:51:49;3.30;;;1.50;;
19782;SDS011;10051;40.294;-3.754;2023-08-31T01:54:16;3.58;;;1.50;;
19782;SDS011;10051;40.294;-3.754;2023-08-31T01:56:45;3.47;;;1.52;;
19782;SDS011;10051;40.294;-3.754;2023-08-31T01:59:12;2.85;;;1.25;;
19782;SDS011;10051;40.294;-3.754;2023-08-31T02:01:49;3.80;;;1.30;;
19782;SDS011;10051;40.294;-3.754;2023-08-31T02:04:36;2.70;;;1.20;;
19782;SDS011;10051;40.294;-3.754;2023-08-31T02:07:02;4.30;;;1.30;;
19782;SDS011;10051;40.294;-3.754;2023-08-31T02:09:33;2.75;;;1.30;;
19782;SDS011;10051;40.294;-3.754;2023-08-31T02:12:02;2.15;;;1.10;;
19782;SDS011;10051;40.294;-3.754;2023-08-31T02:14:36;4.00;;;1.13;;
19782;SDS011;10051;40.294;-3.754;2023-08-31T02:17:25;2.75;;;1.20;;
19782;SDS011;10051;40.294;-3.754;2023-08-31T02:20:02;3.38;;;1.10;;
19782;SDS011;10051;40.294;-3.754;2023-08-31T02:22:34;1.90;;;1.15;;
19782;SDS011;10051;40.294;-3.754;2023-08-31T02:25:07;1.63;;;1.10;;
19782;SDS011;10051;40.294;-3.754;2023-08-31T02:27:45;3.30;;;1.10;;
19782;SDS011;10051;40.294;-3.754;2023-08-31T02:30:38;3.38;;;1.30;;
19782;SDS011;10051;40.294;-3.754;2023-08-31T02:33:05;1.83;;;1.27;;
19782;SDS011;10051;40.294;-3.754;2023-08-31T02:35:34;2.80;;;1.13;;
19782;SDS011;10051;40.294;-3.754;2023-08-31T02:38:00;1.48;;;1.20;;
19782;SDS011;10051;40.294;-3.754;2023-08-31T02:40:28;3.72;;;1.27;;
19782;SDS011;10051;40.294;-3.754;2023-08-31T02:42:54;4.43;;;1.25;;
19782;SDS011;10051;40.294;-3.754;2023-08-31T02:45:23;2.67;;;1.40;;
19782;SDS011;10051;40.294;-3.754;2023-08-31T02:53:39;2.97;;;1.25;;
19782;SDS011;10051;40.294;-3.754;2023-08-31T02:56:30;2.00;;;1.10;;
19782;SDS011;10051;40.294;-3.754;2023-08-31T02:59:09;3.42;;;1.30;;
19782;SDS011;10051;40.294;-3.754;2023-08-31T03:01:44;3.17;;;1.27;;
19782;SDS011;10051;40.294;-3.754;2023-08-31T03:04:11;4.38;;;1.15;;
19782;SDS011;10051;40.294;-3.754;2023-08-31T03:09:22;5.10;;;1.40;;
19782;SDS011;10051;40.294;-3.754;2023-08-31T03:12:02;2.17;;;1.20;;
19782;SDS011;10051;40.294;-3.754;2023-08-31T03:14:31;2.75;;;1.27;;
19782;SDS011;10051;40.294;-3.754;2023-08-31T03:16:57;2.47;;;1.20;;
19782;SDS011;10051;40.294;-3.754;2023-08-31T03:19:30;1.85;;;0.93;;
19782;SDS011;10051;40.294;-3.754;2023-08-31T03:22:10;2.25;;;1.20;;
19782;SDS011;10051;40.294;-3.754;2023-08-31T03:24:48;4.38;;;1.40;;
19782;SDS011;10051;40.294;-3.754;2023-08-31T03:27:30;2.45;;;1.10;;
19782;SDS011;10051;40.294;-3.754;2023-08-31T03:30:01;2.17;;;1.30;;
19782;SDS011;10051;40.294;-3.754;2023-08-31T03:32:36;2.60;;;1.27;;
19782;SDS011;10051;40.294;-3.754;2023-08-31T03:35:17;2.30;;;1.20;;
19782;SDS011;10051;40.294;-3.754;2023-08-31T03:37:53;3.65;;;1.25;;
19782;SDS011;10051;40.294;-3.754;2023-08-31T03:41:19;3.70;;;1.33;;
19782;SDS011;10051;40.294;-3.754;2023-08-31T03:44:08;3.20;;;1.40;;
19782;SDS011;10051;40.294;-3.754;2023-08-31T03:46:34;1.95;;;1.20;;
19782;SDS011;10051;40.294;-3.754;2023-08-31T03:49:03;2.78;;;1.30;;
19782;SDS011;10051;40.294;-3.754;2023-08-31T03:51:32;2.75;;;1.40;;
19782;SDS011;10051;40.294;-3.754;2023-08-31T03:54:14;7.53;;;1.60;;
19782;SDS011;10051;40.294;-3.754;2023-08-31T03:56:42;3.38;;;1.45;;
19782;SDS011;10051;40.294;-3.754;2023-08-31T03:59:09;2.90;;;1.58;;
19782;SDS011;10051;40.294;-3.754;2023-08-31T04:01:50;4.85;;;1.60;;
19782;SDS011;10051;40.294;-3.754;2023-08-31T04:04:24;4.93;;;1.75;;
19782;SDS011;10051;40.294;-3.754;2023-08-31T04:06:51;4.35;;;1.60;;
19782;SDS011;10051;40.294;-3.754;2023-08-31T04:09:19;3.58;;;1.80;;
19782;SDS011;10051;40.294;-3.754;2023-08-31T04:11:45;6.95;;;1.83;;
19782;SDS011;10051;40.294;-3.754;2023-08-31T04:14:14;4.60;;;1.80;;
19782;SDS011;10051;40.294;-3.754;2023-08-31T04:16:46;2.72;;;1.60;;
19782;SDS011;10051;40.294;-3.754;2023-08-31T04:19:15;3.95;;;1.90;;
19782;SDS011;10051;40.294;-3.754;2023-08-31T04:21:42;5.68;;;1.70;;
19782;SDS011;10051;40.294;-3.754;2023-08-31T04:24:10;3.22;;;1.60;;
19782;SDS011;10051;40.294;-3.754;2023-08-31T04:26:36;3.65;;;1.65;;
19782;SDS011;10051;40.294;-3.754;2023-08-31T04:29:04;4.63;;;1.80;;
19782;SDS011;10051;40.294;-3.754;2023-08-31T04:31:34;6.18;;;1.70;;
19782;SDS011;10051;40.294;-3.754;2023-08-31T04:34:06;5.15;;;1.50;;
19782;SDS011;10051;40.294;-3.754;2023-08-31T04:36:36;5.25;;;1.80;;
19782;SDS011;10051;40.294;-3.754;2023-08-31T04:39:03;2.40;;;1.60;;
19782;SDS011;10051;40.294;-3.754;2023-08-31T04:41:33;5.65;;;1.45;;
19782;SDS011;10051;40.294;-3.754;2023-08-31T04:44:03;5.20;;;1.50;;
19782;SDS011;10051;40.294;-3.754;2023-08-31T04:46:48;3.42;;;1.60;;
19782;SDS011;10051;40.294;-3.754;2023-08-31T04:49:37;5.00;;;1.65;;
19782;SDS011;10051;40.294;-3.754;2023-08-31T04:52:18;2.75;;;1.80;;
19782;SDS011;10051;40.294;-3.754;2023-08-31T04:54:45;2.30;;;1.35;;
19782;SDS011;10051;40.294;-3.754;2023-08-31T04:57:11;5.28;;;1.40;;
19782;SDS011;10051;40.294;-3.754;2023-08-31T04:59:39;2.83;;;1.50;;
19782;SDS011;10051;40.294;-3.754;2023-08-31T05:02:09;4.18;;;1.70;;
19782;SDS011;10051;40.294;-3.754;2023-08-31T05:04:43;4.22;;;1.40;;
19782;SDS011;10051;40.294;-3.754;2023-08-31T05:07:26;6.38;;;1.50;;
19782;SDS011;10051;40.294;-3.754;2023-08-31T05:09:54;3.75;;;1.42;;
19782;SDS011;10051;40.294;-3.754;2023-08-31T05:12:32;2.63;;;1.50;;
19782;SDS011;10051;40.294;-3.754;2023-08-31T05:15:09;3.42;;;1.48;;
19782;SDS011;10051;40.294;-3.754;2023-08-31T05:17:36;4.75;;;1.88;;
19782;SDS011;10051;40.294;-3.754;2023-08-31T05:20:07;2.72;;;1.40;;
19782;SDS011;10051;40.294;-3.754;2023-08-31T05:22:39;3.70;;;1.60;;
19782;SDS011;10051;40.294;-3.754;2023-08-31T05:25:16;3.17;;;1.65;;
19782;SDS011;10051;40.294;-3.754;2023-08-31T05:27:44;3.67;;;1.50;;
19782;SDS011;10051;40.294;-3.754;2023-08-31T05:30:16;3.50;;;1.65;;
19782;SDS011;10051;40.294;-3.754;2023-08-31T05:32:42;5.55;;;1.80;;
19782;SDS011;10051;40.294;-3.754;2023-08-31T05:35:08;3.45;;;1.70;;
19782;SDS011;10051;40.294;-3.754;2023-08-31T05:37:38;4.65;;;1.65;;
19782;SDS011;10051;40.294;-3.754;2023-08-31T05:40:05;4.32;;;1.70;;
19782;SDS011;10051;40.294;-3.754;2023-08-31T05:42:36;4.47;;;1.90;;
19782;SDS011;10051;40.294;-3.754;2023-08-31T05:45:44;5.15;;;1.88;;
19782;SDS011;10051;40.294;-3.754;2023-08-31T05:48:14;5.90;;;1.98;;
19782;SDS011;10051;40.294;-3.754;2023-08-31T05:50:50;7.75;;;1.80;;
19782;SDS011;10051;40.294;-3.754;2023-08-31T05:53:20;4.55;;;1.98;;
19782;SDS011;10051;40.294;-3.754;2023-08-31T05:55:54;10.15;;;2.25;;
19782;SDS011;10051;40.294;-3.754;2023-08-31T05:58:23;11.40;;;1.92;;
19782;SDS011;10051;40.294;-3.754;2023-08-31T06:01:05;8.48;;;1.88;;
19782;SDS011;10051;40.294;-3.754;2023-08-31T06:03:33;5.50;;;1.60;;
19782;SDS011;10051;40.294;-3.754;2023-08-31T06:06:05;6.40;;;1.95;;
19782;SDS011;10051;40.294;-3.754;2023-08-31T06:08:31;5.15;;;1.85;;
19782;SDS011;10051;40.294;-3.754;2023-08-31T06:10:57;10.00;;;1.85;;
19782;SDS011;10051;40.294;-3.754;2023-08-31T06:13:30;5.50;;;1.80;;
19782;SDS011;10051;40.294;-3.754;2023-08-31T06:16:07;9.63;;;2.10;;
19782;SDS011;10051;40.294;-3.754;2023-08-31T06:22:01;7.15;;;2.03;;
19782;SDS011;10051;40.294;-3.754;2023-08-31T06:24:32;10.35;;;2.13;;
19782;SDS011;10051;40.294;-3.754;2023-08-31T06:27:33;7.80;;;2.00;;
19782;SDS011;10051;40.294;-3.754;2023-08-31T06:30:06;6.60;;;2.20;;
19782;SDS011;10051;40.294;-3.754;2023-08-31T06:32:54;5.95;;;2.05;;
19782;SDS011;10051;40.294;-3.754;2023-08-31T06:35:26;9.18;;;2.05;;
19782;SDS011;10051;40.294;-3.754;2023-08-31T06:37:52;12.02;;;2.30;;
19782;SDS011;10051;40.294;-3.754;2023-08-31T06:40:23;7.55;;;2.20;;
19782;SDS011;10051;40.294;-3.754;2023-08-31T06:42:53;9.95;;;1.83;;
19782;SDS011;10051;40.294;-3.754;2023-08-31T06:45:21;8.32;;;1.98;;
19782;SDS011;10051;40.294;-3.754;2023-08-31T06:47:49;6.18;;;1.67;;
19782;SDS011;10051;40.294;-3.754;2023-08-31T06:50:15;5.35;;;1.90;;
19782;SDS011;10051;40.294;-3.754;2023-08-31T06:52:42;12.82;;;2.38;;
19782;SDS011;10051;40.294;-3.754;2023-08-31T06:55:12;14.80;;;2.22;;
19782;SDS011;10051;40.294;-3.754;2023-08-31T06:57:46;15.20;;;2.03;;
19782;SDS011;10051;40.294;-3.754;2023-08-31T07:00:14;9.60;;;2.00;;
19782;SDS011;10051;40.294;-3.754;2023-08-31T07:02:44;7.75;;;1.70;;
19782;SDS011;10051;40.294;-3.754;2023-08-31T07:05:15;7.30;;;2.17;;
19782;SDS011;10051;40.294;-3.754;2023-08-31T07:07:51;10.52;;;2.00;;
19782;SDS011;10051;40.294;-3.754;2023-08-31T07:10:19;14.10;;;1.80;;
19782;SDS011;10051;40.294;-3.754;2023-08-31T07:12:48;11.02;;;1.80;;
19782;SDS011;10051;40.294;-3.754;2023-08-31T07:15:26;6.13;;;1.67;;
19782;SDS011;10051;40.294;-3.754;2023-08-31T07:18:06;10.70;;;1.80;;
19782;SDS011;10051;40.294;-3.754;2023-08-31T07:20:34;8.75;;;1.70;;
19782;SDS011;10051;40.294;-3.754;2023-08-31T07:23:03;8.35;;;2.15;;
19782;SDS011;10051;40.294;-3.754;2023-08-31T07:25:30;10.23;;;1.70;;
19782;SDS011;10051;40.294;-3.754;2023-08-31T07:27:56;7.53;;;1.90;;
19782;SDS011;10051;40.294;-3.754;2023-08-31T07:30:22;10.85;;;2.00;;
19782;SDS011;10051;40.294;-3.754;2023-08-31T07:32:49;10.75;;;2.05;;
19782;SDS011;10051;40.294;-3.754;2023-08-31T07:35:18;10.63;;;1.75;;
19782;SDS011;10051;40.294;-3.754;2023-08-31T07:37:44;6.35;;;1.77;;
19782;SDS011;10051;40.294;-3.754;2023-08-31T07:40:10;3.88;;;1.65;;
19782;SDS011;10051;40.294;-3.754;2023-08-31T07:42:37;4.18;;;1.40;;
19782;SDS011;10051;40.294;-3.754;2023-08-31T07:45:08;6.10;;;1.70;;
19782;SDS011;10051;40.294;-3.754;2023-08-31T07:47:35;5.45;;;1.63;;
19782;SDS011;10051;40.294;-3.754;2023-08-31T07:50:10;4.88;;;1.70;;
19782;SDS011;10051;40.294;-3.754;2023-08-31T07:52:37;7.97;;;1.55;;
19782;SDS011;10051;40.294;-3.754;2023-08-31T07:55:05;4.07;;;1.70;;
19782;SDS011;10051;40.294;-3.754;2023-08-31T07:57:32;13.68;;;1.92;;
19782;SDS011;10051;40.294;-3.754;2023-08-31T08:00:00;4.82;;;1.38;;
19782;SDS011;10051;40.294;-3.754;2023-08-31T08:02:27;5.68;;;1.63;;
19782;SDS011;10051;40.294;-3.754;2023-08-31T08:05:00;5.22;;;1.38;;
19782;SDS011;10051;40.294;-3.754;2023-08-31T08:07:30;8.18;;;1.73;;
19782;SDS011;10051;40.294;-3.754;2023-08-31T08:09:59;5.80;;;1.60;;
19782;SDS011;10051;40.294;-3.754;2023-08-31T08:12:41;5.32;;;1.45;;
19782;SDS011;10051;40.294;-3.754;2023-08-31T08:15:10;6.55;;;1.75;;
19782;SDS011;10051;40.294;-3.754;2023-08-31T08:17:37;4.30;;;1.40;;
19782;SDS011;10051;40.294;-3.754;2023-08-31T08:20:10;4.35;;;1.50;;
19782;SDS011;10051;40.294;-3.754;2023-08-31T08:22:44;6.50;;;1.60;;
19782;SDS011;10051;40.294;-3.754;2023-08-31T08:25:25;7.45;;;1.85;;
19782;SDS011;10051;40.294;-3.754;2023-08-31T08:27:55;3.47;;;1.45;;
19782;SDS011;10051;40.294;-3.754;2023-08-31T08:30:24;4.47;;;1.50;;
19782;SDS011;10051;40.294;-3.754;2023-08-31T08:32:52;3.70;;;1.40;;
19782;SDS011;10051;40.294;-3.754;2023-08-31T08:35:22;6.70;;;1.73;;
19782;SDS011;10051;40.294;-3.754;2023-08-31T08:37:51;7.80;;;1.58;;
19782;SDS011;10051;40.294;-3.754;2023-08-31T08:40:18;7.70;;;1.70;;
19782;SDS011;10051;40.294;-3.754;2023-08-31T08:42:50;3.63;;;1.55;;
19782;SDS011;10051;40.294;-3.754;2023-08-31T08:45:23;7.93;;;1.63;;
19782;SDS011;10051;40.294;-3.754;2023-08-31T08:47:53;2.78;;;1.60;;
19782;SDS011;10051;40.294;-3.754;2023-08-31T08:50:20;4.53;;;1.67;;
19782;SDS011;10051;40.294;-3.754;2023-08-31T08:52:48;7.68;;;1.75;;
19782;SDS011;10051;40.294;-3.754;2023-08-31T08:55:18;7.85;;;1.67;;
19782;SDS011;10051;40.294;-3.754;2023-08-31T08:57:46;8.18;;;1.73;;
19782;SDS011;10051;40.294;-3.754;2023-08-31T09:00:17;5.07;;;1.40;;
19782;SDS011;10051;40.294;-3.754;2023-08-31T09:02:43;4.40;;;1.88;;
19782;SDS011;10051;40.294;-3.754;2023-08-31T09:05:15;7.63;;;1.70;;
19782;SDS011;10051;40.294;-3.754;2023-08-31T09:08:03;3.75;;;1.38;;
19782;SDS011;10051;40.294;-3.754;2023-08-31T09:10:34;6.55;;;1.85;;
19782;SDS011;10051;40.294;-3.754;2023-08-31T09:13:04;6.18;;;1.65;;
19782;SDS011;10051;40.294;-3.754;2023-08-31T09:15:38;5.07;;;1.70;;
19782;SDS011;10051;40.294;-3.754;2023-08-31T09:18:13;7.70;;;1.80;;
19782;SDS011;10051;40.294;-3.754;2023-08-31T09:20:48;8.57;;;1.83;;
19782;SDS011;10051;40.294;-3.754;2023-08-31T09:23:15;6.38;;;1.70;;
19782;SDS011;10051;40.294;-3.754;2023-08-31T09:25:52;8.10;;;1.65;;
19782;SDS011;10051;40.294;-3.754;2023-08-31T09:28:24;6.70;;;1.42;;
19782;SDS011;10051;40.294;-3.754;2023-08-31T09:31:12;4.60;;;1.70;;
19782;SDS011;10051;40.294;-3.754;2023-08-31T09:33:38;4.13;;;1.70;;
19782;SDS011;10051;40.294;-3.754;2023-08-31T09:36:14;6.10;;;1.70;;
19782;SDS011;10051;40.294;-3.754;2023-08-31T09:38:48;4.55;;;1.65;;
19782;SDS011;10051;40.294;-3.754;2023-08-31T09:41:17;7.85;;;1.75;;
19782;SDS011;10051;40.294;-3.754;2023-08-31T09:43:44;5.68;;;1.73;;
19782;SDS011;10051;40.294;-3.754;2023-08-31T09:46:11;5.90;;;1.58;;
19782;SDS011;10051;40.294;-3.754;2023-08-31T09:48:38;3.42;;;1.30;;
19782;SDS011;10051;40.294;-3.754;2023-08-31T09:51:07;2.67;;;1.65;;
19782;SDS011;10051;40.294;-3.754;2023-08-31T09:53:37;4.68;;;1.80;;
19782;SDS011;10051;40.294;-3.754;2023-08-31T09:56:06;4.22;;;1.73;;
19782;SDS011;10051;40.294;-3.754;2023-08-31T09:58:32;6.35;;;1.63;;
19782;SDS011;10051;40.294;-3.754;2023-08-31T10:01:03;5.18;;;1.42;;
19782;SDS011;10051;40.294;-3.754;2023-08-31T10:03:31;6.85;;;1.65;;
19782;SDS011;10051;40.294;-3.754;2023-08-31T10:06:02;4.00;;;1.75;;
19782;SDS011;10051;40.294;-3.754;2023-08-31T10:08:28;8.95;;;1.73;;
19782;SDS011;10051;40.294;-3.754;2023-08-31T10:11:02;3.90;;;1.60;;
19782;SDS011;10051;40.294;-3.754;2023-08-31T10:13:32;5.88;;;1.90;;
19782;SDS011;10051;40.294;-3.754;2023-08-31T10:16:03;5.95;;;1.67;;
19782;SDS011;10051;40.294;-3.754;2023-08-31T10:18:30;4.93;;;1.58;;
19782;SDS011;10051;40.294;-3.754;2023-08-31T10:21:07;5.55;;;1.75;;
19782;SDS011;10051;40.294;-3.754;2023-08-31T10:23:47;5.97;;;1.77;;
19782;SDS011;10051;40.294;-3.754;2023-08-31T10:26:29;2.55;;;1.50;;
19782;SDS011;10051;40.294;-3.754;2023-08-31T10:29:00;4.35;;;1.63;;
19782;SDS011;10051;40.294;-3.754;2023-08-31T10:31:28;8.02;;;1.60;;
19782;SDS011;10051;40.294;-3.754;2023-08-31T10:33:59;6.32;;;1.83;;
19782;SDS011;10051;40.294;-3.754;2023-08-31T10:36:36;4.35;;;1.70;;
19782;SDS011;10051;40.294;-3.754;2023-08-31T10:39:12;5.60;;;1.60;;
19782;SDS011;10051;40.294;-3.754;2023-08-31T10:41:52;3.30;;;1.60;;
19782;SDS011;10051;40.294;-3.754;2023-08-31T10:44:22;7.18;;;1.70;;
19782;SDS011;10051;40.294;-3.754;2023-08-31T10:46:52;5.57;;;1.60;;
19782;SDS011;10051;40.294;-3.754;2023-08-31T10:49:21;6.30;;;1.75;;
19782;SDS011;10051;40.294;-3.754;2023-08-31T10:51:58;6.03;;;1.70;;
19782;SDS011;10051;40.294;-3.754;2023-08-31T10:54:43;4.18;;;1.50;;
19782;SDS011;10051;40.294;-3.754;2023-08-31T10:57:11;3.05;;;1.52;;
19782;SDS011;10051;40.294;-3.754;2023-08-31T10:59:50;5.53;;;1.70;;
19782;SDS011;10051;40.294;-3.754;2023-08-31T11:02:30;6.60;;;1.80;;
19782;SDS011;10051;40.294;-3.754;2023-08-31T11:05:18;5.13;;;1.70;;
19782;SDS011;10051;40.294;-3.754;2023-08-31T11:07:48;4.38;;;1.80;;
19782;SDS011;10051;40.294;-3.754;2023-08-31T11:10:24;7.47;;;1.80;;
19782;SDS011;10051;40.294;-3.754;2023-08-31T11:13:02;5.75;;;1.80;;
19782;SDS011;10051;40.294;-3.754;2023-08-31T11:15:33;4.25;;;1.70;;
19782;SDS011;10051;40.294;-3.754;2023-08-31T11:17:59;6.05;;;1.73;;
19782;SDS011;10051;40.294;-3.754;2023-08-31T11:20:25;5.25;;;2.08;;
19782;SDS011;10051;40.294;-3.754;2023-08-31T11:22:59;5.20;;;1.40;;
19782;SDS011;10051;40.294;-3.754;2023-08-31T11:25:26;5.35;;;1.55;;
19782;SDS011;10051;40.294;-3.754;2023-08-31T11:27:56;3.40;;;1.40;;
19782;SDS011;10051;40.294;-3.754;2023-08-31T11:30:30;6.13;;;1.80;;
19782;SDS011;10051;40.294;-3.754;2023-08-31T11:32:56;4.18;;;1.83;;
19782;SDS011;10051;40.294;-3.754;2023-08-31T11:35:31;4.05;;;1.50;;
19782;SDS011;10051;40.294;-3.754;2023-08-31T11:38:02;5.68;;;1.90;;
19782;SDS011;10051;40.294;-3.754;2023-08-31T11:40:29;3.85;;;1.65;;
19782;SDS011;10051;40.294;-3.754;2023-08-31T11:42:56;2.97;;;1.55;;
19782;SDS011;10051;40.294;-3.754;2023-08-31T11:45:23;9.27;;;1.80;;
19782;SDS011;10051;40.294;-3.754;2023-08-31T11:47:53;4.75;;;1.70;;
19782;SDS011;10051;40.294;-3.754;2023-08-31T11:50:23;3.47;;;1.60;;
19782;SDS011;10051;40.294;-3.754;2023-08-31T11:52:50;4.53;;;1.60;;
19782;SDS011;10051;40.294;-3.754;2023-08-31T11:55:18;3.03;;;1.73;;
19782;SDS011;10051;40.294;-3.754;2023-08-31T11:57:48;5.07;;;1.70;;
19782;SDS011;10051;40.294;-3.754;2023-08-31T12:00:20;3.28;;;1.75;;
19782;SDS011;10051;40.294;-3.754;2023-08-31T12:02:59;4.18;;;1.70;;
19782;SDS011;10051;40.294;-3.754;2023-08-31T12:05:26;6.40;;;1.70;;
19782;SDS011;10051;40.294;-3.754;2023-08-31T12:08:09;4.40;;;1.40;;
19782;SDS011;10051;40.294;-3.754;2023-08-31T12:10:39;2.58;;;1.50;;
19782;SDS011;10051;40.294;-3.754;2023-08-31T12:13:11;3.45;;;1.52;;
19782;SDS011;10051;40.294;-3.754;2023-08-31T12:15:40;7.20;;;1.70;;
19782;SDS011;10051;40.294;-3.754;2023-08-31T12:18:10;4.18;;;1.63;;
19782;SDS011;10051;40.294;-3.754;2023-08-31T12:20:55;3.60;;;1.60;;
19782;SDS011;10051;40.294;-3.754;2023-08-31T12:23:22;3.88;;;1.75;;
19782;SDS011;10051;40.294;-3.754;2023-08-31T12:25:54;3.45;;;1.60;;
19782;SDS011;10051;40.294;-3.754;2023-08-31T12:28:25;4.72;;;1.55;;
19782;SDS011;10051;40.294;-3.754;2023-08-31T12:30:52;3.47;;;1.55;;
19782;SDS011;10051;40.294;-3.754;2023-08-31T12:33:22;2.80;;;1.50;;
19782;SDS011;10051;40.294;-3.754;2023-08-31T12:35:49;4.00;;;1.45;;
19782;SDS011;10051;40.294;-3.754;2023-08-31T12:38:18;3.58;;;1.63;;
19782;SDS011;10051;40.294;-3.754;2023-08-31T12:40:45;7.93;;;1.70;;
19782;SDS011;10051;40.294;-3.754;2023-08-31T12:43:10;2.55;;;1.67;;
19782;SDS011;10051;40.294;-3.754;2023-08-31T12:45:37;2.80;;;1.60;;
19782;SDS011;10051;40.294;-3.754;2023-08-31T12:48:04;3.50;;;1.50;;
19782;SDS011;10051;40.294;-3.754;2023-08-31T12:50:30;4.88;;;1.85;;
19782;SDS011;10051;40.294;-3.754;2023-08-31T12:52:59;2.75;;;1.58;;
19782;SDS011;10051;40.294;-3.754;2023-08-31T12:55:25;3.15;;;1.48;;
19782;SDS011;10051;40.294;-3.754;2023-08-31T12:57:54;5.72;;;1.50;;
19782;SDS011;10051;40.294;-3.754;2023-08-31T13:00:23;3.42;;;1.67;;
19782;SDS011;10051;40.294;-3.754;2023-08-31T13:03:00;3.38;;;1.60;;
19782;SDS011;10051;40.294;-3.754;2023-08-31T13:05:32;3.10;;;1.48;;
19782;SDS011;10051;40.294;-3.754;2023-08-31T13:07:58;2.80;;;1.60;;
19782;SDS011;10051;40.294;-3.754;2023-08-31T13:10:25;2.38;;;1.50;;
19782;SDS011;10051;40.294;-3.754;2023-08-31T13:12:54;3.63;;;1.70;;
19782;SDS011;10051;40.294;-3.754;2023-08-31T13:15:20;3.33;;;1.60;;
19782;SDS011;10051;40.294;-3.754;2023-08-31T13:17:47;2.38;;;1.50;;
19782;SDS011;10051;40.294;-3.754;2023-08-31T13:20:16;4.00;;;1.67;;
19782;SDS011;10051;40.294;-3.754;2023-08-31T13:22:42;3.20;;;1.50;;
19782;SDS011;10051;40.294;-3.754;2023-08-31T13:25:08;3.97;;;1.45;;
19782;SDS011;10051;40.294;-3.754;2023-08-31T13:27:43;2.50;;;1.27;;
19782;SDS011;10051;40.294;-3.754;2023-08-31T13:30:09;4.57;;;1.52;;
19782;SDS011;10051;40.294;-3.754;2023-08-31T13:32:37;3.20;;;1.50;;
19782;SDS011;10051;40.294;-3.754;2023-08-31T13:35:12;3.20;;;1.60;;
19782;SDS011;10051;40.294;-3.754;2023-08-31T13:37:47;3.70;;;1.38;;
19782;SDS011;10051;40.294;-3.754;2023-08-31T13:40:14;2.13;;;1.63;;
19782;SDS011;10051;40.294;-3.754;2023-08-31T13:42:48;2.85;;;1.50;;
19782;SDS011;10051;40.294;-3.754;2023-08-31T13:45:33;3.45;;;1.63;;
19782;SDS011;10051;40.294;-3.754;2023-08-31T13:47:59;2.72;;;1.60;;
19782;SDS011;10051;40.294;-3.754;2023-08-31T13:50:26;4.57;;;1.60;;
19782;SDS011;10051;40.294;-3.754;2023-08-31T13:52:53;4.72;;;1.50;;
19782;SDS011;10051;40.294;-3.754;2023-08-31T13:55:20;5.70;;;1.45;;
19782;SDS011;10051;40.294;-3.754;2023-08-31T13:57:47;4.82;;;1.50;;
19782;SDS011;10051;40.294;-3.754;2023-08-31T14:00:13;4.22;;;1.65;;
19782;SDS011;10051;40.294;-3.754;2023-08-31T14:02:39;3.55;;;1.65;;
19782;SDS011;10051;40.294;-3.754;2023-08-31T14:05:05;3.67;;;1.48;;
19782;SDS011;10051;40.294;-3.754;2023-08-31T14:07:33;5.53;;;1.40;;
19782;SDS011;10051;40.294;-3.754;2023-08-31T14:10:01;2.75;;;1.50;;
19782;SDS011;10051;40.294;-3.754;2023-08-31T14:12:30;1.65;;;1.30;;
19782;SDS011;10051;40.294;-3.754;2023-08-31T14:15:00;2.15;;;1.50;;
19782;SDS011;10051;40.294;-3.754;2023-08-31T14:17:29;2.45;;;1.38;;
19782;SDS011;10051;40.294;-3.754;2023-08-31T14:19:56;3.70;;;1.60;;
19782;SDS011;10051;40.294;-3.754;2023-08-31T14:22:23;2.67;;;1.63;;
19782;SDS011;10051;40.294;-3.754;2023-08-31T14:24:49;1.92;;;1.50;;
19782;SDS011;10051;40.294;-3.754;2023-08-31T14:27:15;2.83;;;1.60;;
19782;SDS011;10051;40.294;-3.754;2023-08-31T14:29:44;4.68;;;1.60;;
19782;SDS011;10051;40.294;-3.754;2023-08-31T14:32:10;3.92;;;1.63;;
19782;SDS011;10051;40.294;-3.754;2023-08-31T14:34:36;2.67;;;1.40;;
19782;SDS011;10051;40.294;-3.754;2023-08-31T14:37:02;3.25;;;1.35;;
19782;SDS011;10051;40.294;-3.754;2023-08-31T14:39:28;2.38;;;1.50;;
19782;SDS011;10051;40.294;-3.754;2023-08-31T14:41:56;2.60;;;1.55;;
19782;SDS011;10051;40.294;-3.754;2023-08-31T14:44:23;2.40;;;1.48;;
19782;SDS011;10051;40.294;-3.754;2023-08-31T14:46:50;3.70;;;1.50;;
19782;SDS011;10051;40.294;-3.754;2023-08-31T14:49:17;4.20;;;1.63;;
19782;SDS011;10051;40.294;-3.754;2023-08-31T14:51:52;2.40;;;1.42;;
19782;SDS011;10051;40.294;-3.754;2023-08-31T14:54:18;4.55;;;1.50;;
19782;SDS011;10051;40.294;-3.754;2023-08-31T14:56:44;3.42;;;1.50;;
19782;SDS011;10051;40.294;-3.754;2023-08-31T14:59:10;3.83;;;1.60;;
19782;SDS011;10051;40.294;-3.754;2023-08-31T15:01:36;4.72;;;1.55;;
19782;SDS011;10051;40.294;-3.754;2023-08-31T15:04:03;5.13;;;1.80;;
19782;SDS011;10051;40.294;-3.754;2023-08-31T15:06:30;2.72;;;1.38;;
19782;SDS011;10051;40.294;-3.754;2023-08-31T15:08:58;2.80;;;1.50;;
19782;SDS011;10051;40.294;-3.754;2023-08-31T15:11:27;2.05;;;1.40;;
19782;SDS011;10051;40.294;-3.754;2023-08-31T15:13:57;1.88;;;1.50;;
19782;SDS011;10051;40.294;-3.754;2023-08-31T15:16:24;3.70;;;1.70;;
19782;SDS011;10051;40.294;-3.754;2023-08-31T15:18:51;2.85;;;1.80;;
19782;SDS011;10051;40.294;-3.754;2023-08-31T15:21:17;2.15;;;1.50;;
19782;SDS011;10051;40.294;-3.754;2023-08-31T15:23:45;4.07;;;1.45;;
19782;SDS011;10051;40.294;-3.754;2023-08-31T15:26:11;4.68;;;1.77;;
19782;SDS011;10051;40.294;-3.754;2023-08-31T15:28:40;3.67;;;1.55;;
19782;SDS011;10051;40.294;-3.754;2023-08-31T15:31:08;6.03;;;1.58;;
19782;SDS011;10051;40.294;-3.754;2023-08-31T15:33:57;3.53;;;1.60;;
19782;SDS011;10051;40.294;-3.754;2023-08-31T15:36:27;3.58;;;1.70;;